sensor_id;sensor_type;location;lat;lon;timestamp;pressure;altitude;pressure_sealevel;temperature;humidity
35419;BME280;21525;41.240;16.500;2022-10-18T00:01:50;102612.34;;;24.70;67.47
35419;BME280;21525;41.240;16.500;2022-10-18T00:04:15;102614.94;;;24.51;68.69
35419;BME280;21525;41.240;16.500;2022-10-18T00:06:41;102614.88;;;24.73;67.48
35419;BME280;21525;41.240;16.500;2022-10-18T00:09:07;102599.03;;;24.50;68.59
35419;BME280;21525;41.240;16.500;2022-10-18T00:11:33;102604.78;;;24.17;69.58
35419;BME280;21525;41.240;16.500;2022-10-18T00:13:59;102605.41;;;24.45;69.59
35419;BME280;21525;41.240;16.500;2022-10-18T00:16:25;102607.44;;;24.17;69.87
35419;BME280;21525;41.240;16.500;2022-10-18T00:18:51;102600.75;;;24.30;70.17
35419;BME280;21525;41.240;16.500;2022-10-18T00:21:19;102594.94;;;24.41;69.97
35419;BME280;21525;41.240;16.500;2022-10-18T00:23:46;102600.69;;;24.08;71.23
35419;BME280;21525;41.240;16.500;2022-10-18T00:26:24;102596.28;;;24.07;71.91
35419;BME280;21525;41.240;16.500;2022-10-18T00:28:54;102590.31;;;24.02;71.88
35419;BME280;21525;41.240;16.500;2022-10-18T00:31:26;102579.75;;;24.23;71.16
35419;BME280;21525;41.240;16.500;2022-10-18T00:33:57;102580.22;;;24.10;71.24
35419;BME280;21525;41.240;16.500;2022-10-18T00:36:24;102580.22;;;24.54;70.57
35419;BME280;21525;41.240;16.500;2022-10-18T00:38:50;102586.13;;;23.97;73.88
35419;BME280;21525;41.240;16.500;2022-10-18T00:41:19;102569.31;;;23.96;73.48
35419;BME280;21525;41.240;16.500;2022-10-18T00:46:16;102571.19;;;24.15;72.64
35419;BME280;21525;41.240;16.500;2022-10-18T00:48:42;102570.91;;;24.22;72.98
35419;BME280;21525;41.240;16.500;2022-10-18T00:51:09;102567.84;;;24.33;72.82
35419;BME280;21525;41.240;16.500;2022-10-18T00:53:35;102559.25;;;24.47;71.83
35419;BME280;21525;41.240;16.500;2022-10-18T00:56:02;102561.34;;;24.60;71.07
35419;BME280;21525;41.240;16.500;2022-10-18T00:58:27;102549.31;;;23.86;75.06
35419;BME280;21525;41.240;16.500;2022-10-18T01:00:53;102545.63;;;24.34;73.59
35419;BME280;21525;41.240;16.500;2022-10-18T01:03:19;102550.28;;;24.69;72.12
35419;BME280;21525;41.240;16.500;2022-10-18T01:05:46;102549.75;;;24.41;73.50
35419;BME280;21525;41.240;16.500;2022-10-18T01:11:17;102547.56;;;24.30;74.08
35419;BME280;21525;41.240;16.500;2022-10-18T01:16:36;102550.25;;;24.07;76.10
35419;BME280;21525;41.240;16.500;2022-10-18T01:21:58;102543.38;;;23.79;77.81
35419;BME280;21525;41.240;16.500;2022-10-18T01:27:22;102539.59;;;24.51;74.95
35419;BME280;21525;41.240;16.500;2022-10-18T01:32:47;102539.63;;;23.85;77.73
35419;BME280;21525;41.240;16.500;2022-10-18T01:35:24;102535.91;;;24.11;76.26
35419;BME280;21525;41.240;16.500;2022-10-18T01:37:51;102538.25;;;24.19;76.94
35419;BME280;21525;41.240;16.500;2022-10-18T01:40:19;102529.13;;;24.04;77.02
35419;BME280;21525;41.240;16.500;2022-10-18T01:42:47;102519.78;;;23.94;76.84
35419;BME280;21525;41.240;16.500;2022-10-18T01:45:14;102524.97;;;23.97;76.83
35419;BME280;21525;41.240;16.500;2022-10-18T01:47:45;102523.69;;;24.49;74.43
35419;BME280;21525;41.240;16.500;2022-10-18T01:50:12;102518.56;;;24.02;75.41
35419;BME280;21525;41.240;16.500;2022-10-18T01:52:51;102513.03;;;23.85;76.61
35419;BME280;21525;41.240;16.500;2022-10-18T01:55:17;102512.25;;;23.83;76.44
35419;BME280;21525;41.240;16.500;2022-10-18T02:00:33;102512.44;;;24.00;75.24
35419;BME280;21525;41.240;16.500;2022-10-18T02:03:22;102513.09;;;23.84;76.05
35419;BME280;21525;41.240;16.500;2022-10-18T02:05:55;102511.78;;;24.16;74.78
35419;BME280;21525;41.240;16.500;2022-10-18T02:08:47;102514.84;;;23.85;75.52
35419;BME280;21525;41.240;16.500;2022-10-18T02:11:15;102513.50;;;24.17;73.64
35419;BME280;21525;41.240;16.500;2022-10-18T02:13:46;102515.25;;;24.18;73.14
35419;BME280;21525;41.240;16.500;2022-10-18T02:16:16;102515.59;;;23.88;74.19
35419;BME280;21525;41.240;16.500;2022-10-18T02:18:50;102515.25;;;24.18;72.15
35419;BME280;21525;41.240;16.500;2022-10-18T02:21:20;102514.03;;;23.83;73.85
35419;BME280;21525;41.240;16.500;2022-10-18T02:23:46;102510.69;;;23.99;72.72
35419;BME280;21525;41.240;16.500;2022-10-18T02:26:14;102506.34;;;23.75;73.52
35419;BME280;21525;41.240;16.500;2022-10-18T02:28:41;102514.09;;;24.25;70.47
35419;BME280;21525;41.240;16.500;2022-10-18T02:36:18;102517.00;;;23.75;71.21
35419;BME280;21525;41.240;16.500;2022-10-18T02:38:51;102508.38;;;23.70;73.09
35419;BME280;21525;41.240;16.500;2022-10-18T02:41:25;102514.25;;;23.55;72.46
35419;BME280;21525;41.240;16.500;2022-10-18T02:43:52;102515.25;;;23.74;71.30
35419;BME280;21525;41.240;16.500;2022-10-18T02:46:19;102505.09;;;24.05;70.03
35419;BME280;21525;41.240;16.500;2022-10-18T02:48:45;102509.00;;;23.75;70.92
35419;BME280;21525;41.240;16.500;2022-10-18T02:51:11;102508.19;;;24.17;69.16
35419;BME280;21525;41.240;16.500;2022-10-18T02:53:36;102505.97;;;24.06;69.17
35419;BME280;21525;41.240;16.500;2022-10-18T02:56:02;102506.25;;;23.33;71.84
35419;BME280;21525;41.240;16.500;2022-10-18T02:58:28;102511.31;;;23.84;69.40
35419;BME280;21525;41.240;16.500;2022-10-18T03:00:54;102501.59;;;23.83;69.27
35419;BME280;21525;41.240;16.500;2022-10-18T03:03:19;102511.34;;;24.04;68.39
35419;BME280;21525;41.240;16.500;2022-10-18T03:05:49;102507.00;;;24.03;67.98
35419;BME280;21525;41.240;16.500;2022-10-18T03:08:15;102509.34;;;23.89;69.15
35419;BME280;21525;41.240;16.500;2022-10-18T03:10:47;102515.75;;;23.62;69.00
35419;BME280;21525;41.240;16.500;2022-10-18T03:13:13;102507.28;;;23.74;68.55
35419;BME280;21525;41.240;16.500;2022-10-18T03:15:39;102513.34;;;23.77;67.71
35419;BME280;21525;41.240;16.500;2022-10-18T03:18:04;102503.47;;;23.81;68.22
35419;BME280;21525;41.240;16.500;2022-10-18T03:20:30;102508.91;;;23.56;69.19
35419;BME280;21525;41.240;16.500;2022-10-18T03:22:56;102514.84;;;23.63;69.23
35419;BME280;21525;41.240;16.500;2022-10-18T03:25:22;102514.97;;;23.36;69.52
35419;BME280;21525;41.240;16.500;2022-10-18T03:27:47;102510.34;;;23.65;69.03
35419;BME280;21525;41.240;16.500;2022-10-18T03:30:13;102510.38;;;23.63;69.27
35419;BME280;21525;41.240;16.500;2022-10-18T03:32:39;102505.31;;;23.79;67.24
35419;BME280;21525;41.240;16.500;2022-10-18T03:35:06;102512.56;;;23.97;67.21
35419;BME280;21525;41.240;16.500;2022-10-18T03:37:34;102510.31;;;23.41;69.52
35419;BME280;21525;41.240;16.500;2022-10-18T03:40:00;102511.59;;;23.31;70.68
35419;BME280;21525;41.240;16.500;2022-10-18T03:42:26;102518.25;;;23.88;68.09
35419;BME280;21525;41.240;16.500;2022-10-18T03:44:51;102515.28;;;23.27;70.34
35419;BME280;21525;41.240;16.500;2022-10-18T03:47:17;102515.13;;;23.55;68.82
35419;BME280;21525;41.240;16.500;2022-10-18T03:49:43;102517.59;;;23.60;69.37
35419;BME280;21525;41.240;16.500;2022-10-18T03:52:09;102514.44;;;23.72;68.07
35419;BME280;21525;41.240;16.500;2022-10-18T03:54:35;102518.34;;;23.40;68.80
35419;BME280;21525;41.240;16.500;2022-10-18T03:57:00;102513.16;;;23.60;68.34
35419;BME280;21525;41.240;16.500;2022-10-18T03:59:26;102519.84;;;23.70;67.45
35419;BME280;21525;41.240;16.500;2022-10-18T04:01:52;102519.69;;;23.73;67.29
35419;BME280;21525;41.240;16.500;2022-10-18T04:04:18;102516.88;;;23.78;66.96
35419;BME280;21525;41.240;16.500;2022-10-18T04:06:44;102517.00;;;23.75;66.56
35419;BME280;21525;41.240;16.500;2022-10-18T04:09:09;102519.41;;;23.81;65.15
35419;BME280;21525;41.240;16.500;2022-10-18T04:11:35;102515.28;;;23.51;66.94
35419;BME280;21525;41.240;16.500;2022-10-18T04:14:01;102520.50;;;23.75;66.68
35419;BME280;21525;41.240;16.500;2022-10-18T04:16:27;102516.06;;;23.76;66.69
35419;BME280;21525;41.240;16.500;2022-10-18T04:18:52;102514.81;;;23.39;66.75
35419;BME280;21525;41.240;16.500;2022-10-18T04:21:19;102517.16;;;23.25;68.34
35419;BME280;21525;41.240;16.500;2022-10-18T04:23:49;102517.50;;;23.63;66.11
35419;BME280;21525;41.240;16.500;2022-10-18T04:26:15;102517.09;;;23.72;65.82
35419;BME280;21525;41.240;16.500;2022-10-18T04:28:42;102515.19;;;23.54;66.10
35419;BME280;21525;41.240;16.500;2022-10-18T04:31:09;102518.66;;;23.77;65.09
35419;BME280;21525;41.240;16.500;2022-10-18T04:33:35;102504.63;;;23.74;65.83
35419;BME280;21525;41.240;16.500;2022-10-18T04:36:01;102504.66;;;23.51;65.50
35419;BME280;21525;41.240;16.500;2022-10-18T04:38:27;102499.72;;;23.18;67.04
35419;BME280;21525;41.240;16.500;2022-10-18T04:40:52;102509.41;;;23.66;65.07
35419;BME280;21525;41.240;16.500;2022-10-18T04:43:18;102500.00;;;23.57;65.81
35419;BME280;21525;41.240;16.500;2022-10-18T04:45:45;102499.06;;;23.80;64.79
35419;BME280;21525;41.240;16.500;2022-10-18T04:48:11;102505.00;;;23.41;65.76
35419;BME280;21525;41.240;16.500;2022-10-18T04:50:37;102502.41;;;23.40;65.81
35419;BME280;21525;41.240;16.500;2022-10-18T04:53:13;102503.59;;;23.78;64.51
35419;BME280;21525;41.240;16.500;2022-10-18T04:55:46;102500.28;;;23.26;66.76
35419;BME280;21525;41.240;16.500;2022-10-18T04:58:14;102492.91;;;23.34;66.99
35419;BME280;21525;41.240;16.500;2022-10-18T05:00:41;102504.78;;;23.24;67.40
35419;BME280;21525;41.240;16.500;2022-10-18T05:03:07;102502.84;;;23.51;66.48
35419;BME280;21525;41.240;16.500;2022-10-18T05:05:33;102503.63;;;23.31;67.08
35419;BME280;21525;41.240;16.500;2022-10-18T05:07:59;102503.41;;;23.14;67.53
35419;BME280;21525;41.240;16.500;2022-10-18T05:10:25;102498.88;;;23.39;66.59
35419;BME280;21525;41.240;16.500;2022-10-18T05:12:51;102498.91;;;23.63;65.63
35419;BME280;21525;41.240;16.500;2022-10-18T05:15:23;102494.69;;;23.79;64.20
35419;BME280;21525;41.240;16.500;2022-10-18T05:18:05;102506.28;;;23.31;66.73
35419;BME280;21525;41.240;16.500;2022-10-18T05:20:32;102503.16;;;23.67;64.79
35419;BME280;21525;41.240;16.500;2022-10-18T05:22:57;102503.97;;;23.45;66.54
35419;BME280;21525;41.240;16.500;2022-10-18T05:25:24;102509.81;;;23.55;65.33
35419;BME280;21525;41.240;16.500;2022-10-18T05:27:50;102507.72;;;24.07;63.55
35419;BME280;21525;41.240;16.500;2022-10-18T05:30:16;102503.88;;;23.25;66.23
35419;BME280;21525;41.240;16.500;2022-10-18T05:32:42;102509.88;;;23.75;64.80
35419;BME280;21525;41.240;16.500;2022-10-18T05:35:08;102511.19;;;23.65;64.71
35419;BME280;21525;41.240;16.500;2022-10-18T05:37:33;102514.53;;;23.92;65.99
35419;BME280;21525;41.240;16.500;2022-10-18T05:39:59;102514.78;;;23.64;64.88
35419;BME280;21525;41.240;16.500;2022-10-18T05:42:25;102516.38;;;23.90;64.48
35419;BME280;21525;41.240;16.500;2022-10-18T05:44:51;102519.16;;;23.65;65.10
35419;BME280;21525;41.240;16.500;2022-10-18T05:47:16;102517.22;;;24.12;63.12
35419;BME280;21525;41.240;16.500;2022-10-18T05:49:42;102525.88;;;24.39;62.31
35419;BME280;21525;41.240;16.500;2022-10-18T05:52:08;102514.13;;;24.65;61.08
35419;BME280;21525;41.240;16.500;2022-10-18T05:54:34;102515.34;;;25.55;57.78
35419;BME280;21525;41.240;16.500;2022-10-18T05:56:59;102503.63;;;26.99;53.84
35419;BME280;21525;41.240;16.500;2022-10-18T05:59:25;102514.56;;;28.36;49.04
35419;BME280;21525;41.240;16.500;2022-10-18T06:01:51;102518.47;;;28.30;49.22
35419;BME280;21525;41.240;16.500;2022-10-18T06:04:17;102515.63;;;28.92;47.38
35419;BME280;21525;41.240;16.500;2022-10-18T06:06:42;102518.78;;;29.41;47.36
35419;BME280;21525;41.240;16.500;2022-10-18T06:09:08;102512.41;;;29.70;44.99
35419;BME280;21525;41.240;16.500;2022-10-18T06:11:35;102513.66;;;30.71;42.88
35419;BME280;21525;41.240;16.500;2022-10-18T06:14:02;102503.50;;;31.25;42.15
35419;BME280;21525;41.240;16.500;2022-10-18T06:16:27;102516.00;;;31.01;43.41
35419;BME280;21525;41.240;16.500;2022-10-18T06:18:55;102515.09;;;31.38;41.73
35419;BME280;21525;41.240;16.500;2022-10-18T06:21:22;102518.25;;;30.94;41.77
35419;BME280;21525;41.240;16.500;2022-10-18T06:23:49;102523.50;;;31.58;40.74
35419;BME280;21525;41.240;16.500;2022-10-18T06:26:15;102517.69;;;33.37;38.92
35419;BME280;21525;41.240;16.500;2022-10-18T06:28:41;102518.34;;;32.15;39.40
35419;BME280;21525;41.240;16.500;2022-10-18T06:31:07;102513.81;;;31.92;39.51
35419;BME280;21525;41.240;16.500;2022-10-18T06:33:34;102519.81;;;32.54;39.29
35419;BME280;21525;41.240;16.500;2022-10-18T06:36:06;102516.38;;;34.39;35.54
35419;BME280;21525;41.240;16.500;2022-10-18T06:38:32;102516.38;;;34.39;35.77
35419;BME280;21525;41.240;16.500;2022-10-18T06:40:58;102522.09;;;34.46;35.67
35419;BME280;21525;41.240;16.500;2022-10-18T06:43:24;102521.00;;;33.84;36.69
35419;BME280;21525;41.240;16.500;2022-10-18T06:45:51;102512.78;;;34.59;35.16
35419;BME280;21525;41.240;16.500;2022-10-18T06:48:17;102523.41;;;34.30;36.11
35419;BME280;21525;41.240;16.500;2022-10-18T06:50:57;102521.19;;;34.35;35.36
35419;BME280;21525;41.240;16.500;2022-10-18T06:53:29;102526.00;;;35.04;34.51
35419;BME280;21525;41.240;16.500;2022-10-18T06:56:03;102521.44;;;35.45;34.21
35419;BME280;21525;41.240;16.500;2022-10-18T06:58:29;102530.91;;;35.79;33.17
35419;BME280;21525;41.240;16.500;2022-10-18T07:00:56;102521.22;;;36.15;32.99
35419;BME280;21525;41.240;16.500;2022-10-18T07:03:22;102531.47;;;36.60;32.16
35419;BME280;21525;41.240;16.500;2022-10-18T07:05:48;102527.19;;;36.48;32.55
35419;BME280;21525;41.240;16.500;2022-10-18T07:08:14;102529.88;;;37.04;31.47
35419;BME280;21525;41.240;16.500;2022-10-18T07:10:40;102526.25;;;36.29;32.16
35419;BME280;21525;41.240;16.500;2022-10-18T07:13:06;102524.66;;;37.30;31.63
35419;BME280;21525;41.240;16.500;2022-10-18T07:15:32;102521.84;;;38.03;30.37
35419;BME280;21525;41.240;16.500;2022-10-18T07:17:58;102520.22;;;38.53;29.89
35419;BME280;21525;41.240;16.500;2022-10-18T07:20:24;102523.34;;;38.58;29.58
35419;BME280;21525;41.240;16.500;2022-10-18T07:22:49;102525.13;;;38.76;29.27
35419;BME280;21525;41.240;16.500;2022-10-18T07:25:20;102528.78;;;38.58;29.28
35419;BME280;21525;41.240;16.500;2022-10-18T07:27:45;102525.06;;;38.93;29.52
35419;BME280;21525;41.240;16.500;2022-10-18T07:30:11;102520.22;;;39.05;28.68
35419;BME280;21525;41.240;16.500;2022-10-18T07:32:37;102521.66;;;39.25;28.64
35419;BME280;21525;41.240;16.500;2022-10-18T07:35:03;102521.47;;;38.85;28.92
35419;BME280;21525;41.240;16.500;2022-10-18T07:37:29;102528.22;;;38.55;28.84
35419;BME280;21525;41.240;16.500;2022-10-18T07:39:55;102517.06;;;39.34;28.79
35419;BME280;21525;41.240;16.500;2022-10-18T07:42:20;102523.97;;;39.12;28.74
35419;BME280;21525;41.240;16.500;2022-10-18T07:44:46;102523.66;;;39.15;28.76
35419;BME280;21525;41.240;16.500;2022-10-18T07:47:12;102522.81;;;39.81;28.03
35419;BME280;21525;41.240;16.500;2022-10-18T07:49:38;102522.00;;;39.22;28.37
35419;BME280;21525;41.240;16.500;2022-10-18T07:52:04;102524.75;;;38.71;28.74
35419;BME280;21525;41.240;16.500;2022-10-18T07:54:29;102528.00;;;38.66;29.20
35419;BME280;21525;41.240;16.500;2022-10-18T07:56:55;102528.06;;;38.56;28.54
35419;BME280;21525;41.240;16.500;2022-10-18T07:59:21;102524.66;;;39.56;28.25
35419;BME280;21525;41.240;16.500;2022-10-18T08:01:47;102523.22;;;38.94;28.21
35419;BME280;21525;41.240;16.500;2022-10-18T08:04:12;102522.22;;;37.54;30.35
35419;BME280;21525;41.240;16.500;2022-10-18T08:06:38;102528.63;;;37.36;31.11
35419;BME280;21525;41.240;16.500;2022-10-18T08:09:04;102527.00;;;37.43;31.13
35419;BME280;21525;41.240;16.500;2022-10-18T08:11:30;102526.97;;;37.15;31.46
35419;BME280;21525;41.240;16.500;2022-10-18T08:13:56;102528.53;;;36.90;31.91
35419;BME280;21525;41.240;16.500;2022-10-18T08:16:25;102528.38;;;35.87;33.14
35419;BME280;21525;41.240;16.500;2022-10-18T08:18:51;102527.97;;;35.32;34.51
35419;BME280;21525;41.240;16.500;2022-10-18T08:21:18;102526.56;;;35.48;34.70
35419;BME280;21525;41.240;16.500;2022-10-18T08:23:44;102528.41;;;35.38;34.84
35419;BME280;21525;41.240;16.500;2022-10-18T08:26:12;102524.03;;;35.56;34.65
35419;BME280;21525;41.240;16.500;2022-10-18T08:28:39;102531.56;;;35.12;35.42
35419;BME280;21525;41.240;16.500;2022-10-18T08:31:06;102523.81;;;35.88;35.01
35419;BME280;21525;41.240;16.500;2022-10-18T08:33:33;102521.69;;;35.91;34.96
35419;BME280;21525;41.240;16.500;2022-10-18T08:36:02;102519.59;;;35.15;36.22
35419;BME280;21525;41.240;16.500;2022-10-18T08:38:31;102519.13;;;35.30;35.69
35419;BME280;21525;41.240;16.500;2022-10-18T08:44:01;102514.63;;;34.80;36.72
35419;BME280;21525;41.240;16.500;2022-10-18T08:46:31;102522.03;;;35.08;36.99
35419;BME280;21525;41.240;16.500;2022-10-18T08:48:58;102525.34;;;35.21;36.90
35419;BME280;21525;41.240;16.500;2022-10-18T08:51:38;102520.13;;;34.99;36.96
35419;BME280;21525;41.240;16.500;2022-10-18T08:54:30;102518.66;;;34.64;36.91
35419;BME280;21525;41.240;16.500;2022-10-18T08:57:01;102512.38;;;34.85;37.16
35419;BME280;21525;41.240;16.500;2022-10-18T08:59:38;102524.19;;;33.35;39.18
35419;BME280;21525;41.240;16.500;2022-10-18T09:05:16;102519.59;;;34.33;38.35
35419;BME280;21525;41.240;16.500;2022-10-18T09:16:21;102516.56;;;33.94;39.29
35419;BME280;21525;41.240;16.500;2022-10-18T09:22:00;102523.63;;;32.63;42.33
35419;BME280;21525;41.240;16.500;2022-10-18T09:24:45;102517.88;;;32.67;42.08
35419;BME280;21525;41.240;16.500;2022-10-18T09:27:18;102520.34;;;33.15;41.52
35419;BME280;21525;41.240;16.500;2022-10-18T09:30:01;102514.09;;;32.24;43.26
35419;BME280;21525;41.240;16.500;2022-10-18T09:35:39;102506.47;;;31.83;43.96
35419;BME280;21525;41.240;16.500;2022-10-18T09:38:14;102508.28;;;31.82;44.78
35419;BME280;21525;41.240;16.500;2022-10-18T09:40:50;102512.00;;;30.43;47.87
35419;BME280;21525;41.240;16.500;2022-10-18T09:43:22;102509.31;;;31.92;45.11
35419;BME280;21525;41.240;16.500;2022-10-18T09:45:51;102503.91;;;31.45;45.31
35419;BME280;21525;41.240;16.500;2022-10-18T09:48:22;102501.72;;;31.50;46.04
35419;BME280;21525;41.240;16.500;2022-10-18T09:51:02;102507.22;;;30.86;47.50
35419;BME280;21525;41.240;16.500;2022-10-18T09:53:44;102505.38;;;30.74;47.86
35419;BME280;21525;41.240;16.500;2022-10-18T09:56:23;102496.84;;;30.42;49.15
35419;BME280;21525;41.240;16.500;2022-10-18T09:58:50;102495.69;;;30.97;47.78
35419;BME280;21525;41.240;16.500;2022-10-18T10:01:28;102501.16;;;31.08;47.81
35419;BME280;21525;41.240;16.500;2022-10-18T10:03:54;102490.16;;;31.36;47.29
35419;BME280;21525;41.240;16.500;2022-10-18T10:06:28;102489.81;;;31.78;45.75
35419;BME280;21525;41.240;16.500;2022-10-18T10:11:51;102481.38;;;31.82;46.31
35419;BME280;21525;41.240;16.500;2022-10-18T10:14:23;102482.06;;;31.73;45.70
35419;BME280;21525;41.240;16.500;2022-10-18T10:17:04;102475.91;;;31.84;45.81
35419;BME280;21525;41.240;16.500;2022-10-18T10:19:32;102481.75;;;30.79;47.44
35419;BME280;21525;41.240;16.500;2022-10-18T10:22:35;102473.72;;;31.28;47.21
35419;BME280;21525;41.240;16.500;2022-10-18T10:25:01;102477.69;;;30.08;50.22
35419;BME280;21525;41.240;16.500;2022-10-18T10:27:41;102469.78;;;30.96;49.22
35419;BME280;21525;41.240;16.500;2022-10-18T10:30:30;102473.16;;;30.74;48.29
35419;BME280;21525;41.240;16.500;2022-10-18T10:32:57;102468.19;;;30.81;49.75
35419;BME280;21525;41.240;16.500;2022-10-18T10:35:28;102471.16;;;30.13;50.44
35419;BME280;21525;41.240;16.500;2022-10-18T10:37:57;102467.94;;;29.93;51.75
35419;BME280;21525;41.240;16.500;2022-10-18T10:45:33;102448.81;;;31.50;48.28
35419;BME280;21525;41.240;16.500;2022-10-18T10:48:12;102448.91;;;31.96;46.74
35419;BME280;21525;41.240;16.500;2022-10-18T10:50:58;102438.50;;;32.49;45.81
35419;BME280;21525;41.240;16.500;2022-10-18T10:53:28;102432.53;;;32.68;44.58
35419;BME280;21525;41.240;16.500;2022-10-18T10:55:56;102426.72;;;31.21;47.56
35419;BME280;21525;41.240;16.500;2022-10-18T10:58:25;102428.03;;;30.66;48.86
35419;BME280;21525;41.240;16.500;2022-10-18T11:00:55;102432.59;;;28.49;55.44
35419;BME280;21525;41.240;16.500;2022-10-18T11:03:22;102409.66;;;30.60;51.34
35419;BME280;21525;41.240;16.500;2022-10-18T11:05:50;102416.94;;;30.84;50.27
35419;BME280;21525;41.240;16.500;2022-10-18T11:08:25;102406.25;;;31.68;48.24
35419;BME280;21525;41.240;16.500;2022-10-18T11:11:04;102407.44;;;29.35;52.85
35419;BME280;21525;41.240;16.500;2022-10-18T11:13:48;102403.59;;;28.27;57.13
35419;BME280;21525;41.240;16.500;2022-10-18T11:16:57;102394.09;;;29.21;55.56
35419;BME280;21525;41.240;16.500;2022-10-18T11:19:13;102395.75;;;29.51;54.29
35419;BME280;21525;41.240;16.500;2022-10-18T11:21:45;102393.06;;;29.36;54.27
35419;BME280;21525;41.240;16.500;2022-10-18T11:24:14;102381.03;;;29.02;55.96
35419;BME280;21525;41.240;16.500;2022-10-18T11:26:47;102388.63;;;28.82;57.02
35419;BME280;21525;41.240;16.500;2022-10-18T11:32:13;102379.66;;;29.09;55.88
35419;BME280;21525;41.240;16.500;2022-10-18T11:45:47;102359.38;;;28.06;59.50
35419;BME280;21525;41.240;16.500;2022-10-18T11:50:52;102346.53;;;28.27;61.05
35419;BME280;21525;41.240;16.500;2022-10-18T12:01:37;102332.00;;;28.31;60.88
35419;BME280;21525;41.240;16.500;2022-10-18T12:04:16;102327.97;;;29.49;57.84
35419;BME280;21525;41.240;16.500;2022-10-18T12:06:46;102338.41;;;27.70;63.92
35419;BME280;21525;41.240;16.500;2022-10-18T12:11:44;102324.09;;;26.94;67.33
35419;BME280;21525;41.240;16.500;2022-10-18T12:14:34;102311.72;;;28.13;63.51
35419;BME280;21525;41.240;16.500;2022-10-18T12:17:05;102306.13;;;29.01;60.32
35419;BME280;21525;41.240;16.500;2022-10-18T12:19:33;102308.56;;;29.58;57.55
35419;BME280;21525;41.240;16.500;2022-10-18T12:22:17;102308.00;;;28.01;63.04
35419;BME280;21525;41.240;16.500;2022-10-18T12:24:44;102306.06;;;28.88;60.26
35419;BME280;21525;41.240;16.500;2022-10-18T12:27:12;102303.19;;;29.45;58.87
35419;BME280;21525;41.240;16.500;2022-10-18T12:29:49;102303.78;;;28.68;60.10
35419;BME280;21525;41.240;16.500;2022-10-18T12:32:20;102303.53;;;27.41;66.74
35419;BME280;21525;41.240;16.500;2022-10-18T12:34:51;102296.34;;;27.88;64.50
35419;BME280;21525;41.240;16.500;2022-10-18T12:40:14;102298.09;;;28.46;63.43
35419;BME280;21525;41.240;16.500;2022-10-18T12:42:44;102298.31;;;27.70;65.48
35419;BME280;21525;41.240;16.500;2022-10-18T12:45:25;102290.06;;;27.29;68.47
35419;BME280;21525;41.240;16.500;2022-10-18T12:47:51;102283.19;;;27.39;68.06
35419;BME280;21525;41.240;16.500;2022-10-18T12:50:36;102276.69;;;28.17;65.45
35419;BME280;21525;41.240;16.500;2022-10-18T12:53:06;102284.72;;;28.31;66.04
35419;BME280;21525;41.240;16.500;2022-10-18T12:55:41;102282.59;;;28.36;65.48
35419;BME280;21525;41.240;16.500;2022-10-18T13:16:25;102269.09;;;27.95;68.84
35419;BME280;21525;41.240;16.500;2022-10-18T13:18:56;102264.78;;;28.23;66.66
35419;BME280;21525;41.240;16.500;2022-10-18T13:21:52;102263.59;;;28.13;68.60
35419;BME280;21525;41.240;16.500;2022-10-18T13:27:50;102265.56;;;26.59;77.19
35419;BME280;21525;41.240;16.500;2022-10-18T13:35:49;102258.44;;;28.38;69.47
35419;BME280;21525;41.240;16.500;2022-10-18T13:38:40;102255.97;;;27.32;72.97
35419;BME280;21525;41.240;16.500;2022-10-18T13:46:23;102249.16;;;26.34;79.90
35419;BME280;21525;41.240;16.500;2022-10-18T14:00:13;102235.50;;;27.91;71.41
35419;BME280;21525;41.240;16.500;2022-10-18T14:05:22;102226.03;;;28.14;72.24
35419;BME280;21525;41.240;16.500;2022-10-18T14:07:49;102228.72;;;28.28;71.15
35419;BME280;21525;41.240;16.500;2022-10-18T14:10:23;102236.53;;;28.17;73.16
35419;BME280;21525;41.240;16.500;2022-10-18T14:12:56;102230.84;;;27.51;74.65
35419;BME280;21525;41.240;16.500;2022-10-18T14:15:30;102239.28;;;26.67;81.02
35419;BME280;21525;41.240;16.500;2022-10-18T14:18:06;102239.41;;;27.12;78.84
35419;BME280;21525;41.240;16.500;2022-10-18T14:20:53;102230.75;;;26.45;82.99
35419;BME280;21525;41.240;16.500;2022-10-18T14:23:32;102231.53;;;26.47;86.55
35419;BME280;21525;41.240;16.500;2022-10-18T14:26:07;102224.84;;;27.17;81.90
35419;BME280;21525;41.240;16.500;2022-10-18T14:28:33;102224.28;;;26.33;87.06
35419;BME280;21525;41.240;16.500;2022-10-18T14:31:02;102225.56;;;27.05;81.79
35419;BME280;21525;41.240;16.500;2022-10-18T14:33:44;102228.22;;;27.05;84.89
35419;BME280;21525;41.240;16.500;2022-10-18T14:36:13;102216.84;;;27.31;82.30
35419;BME280;21525;41.240;16.500;2022-10-18T14:38:59;102223.56;;;26.63;84.19
35419;BME280;21525;41.240;16.500;2022-10-18T14:41:27;102212.38;;;27.76;80.06
35419;BME280;21525;41.240;16.500;2022-10-18T14:46:58;102208.00;;;27.01;80.19
35419;BME280;21525;41.240;16.500;2022-10-18T14:49:24;102205.56;;;27.56;79.16
35419;BME280;21525;41.240;16.500;2022-10-18T14:51:52;102212.63;;;27.13;81.28
35419;BME280;21525;41.240;16.500;2022-10-18T14:54:24;102205.97;;;27.20;80.03
35419;BME280;21525;41.240;16.500;2022-10-18T14:56:53;102199.91;;;27.47;79.75
35419;BME280;21525;41.240;16.500;2022-10-18T14:59:24;102201.50;;;27.21;82.50
35419;BME280;21525;41.240;16.500;2022-10-18T15:04:25;102196.88;;;27.53;81.13
35419;BME280;21525;41.240;16.500;2022-10-18T15:07:02;102192.72;;;27.91;77.53
35419;BME280;21525;41.240;16.500;2022-10-18T15:09:29;102194.50;;;26.88;82.71